createdAt,value
2018-11-02T00:00:52.894Z,15.19
2018-11-02T00:01:55.565Z,15.19
2018-11-02T00:02:58.202Z,15.18
2018-11-02T00:04:01.134Z,15.18
2018-11-02T00:05:03.918Z,15.18
2018-11-02T00:06:06.596Z,15.18
2018-11-02T00:07:09.262Z,15.19
2018-11-02T00:08:11.912Z,15.18
2018-11-02T00:09:14.873Z,15.18
2018-11-02T00:10:17.530Z,15.19
2018-11-02T00:11:20.549Z,15.19
2018-11-02T00:12:23.219Z,15.19
2018-11-02T00:13:25.881Z,15.18
2018-11-02T00:14:28.932Z,15.19
2018-11-02T00:15:31.578Z,15.18
2018-11-02T00:16:34.226Z,15.18
2018-11-02T00:17:37.006Z,15.19
2018-11-02T00:18:39.750Z,15.20
2018-11-02T00:19:42.686Z,15.19
2018-11-02T00:20:45.326Z,15.19
2018-11-02T00:21:47.970Z,15.20
2018-11-02T00:22:50.635Z,15.18
2018-11-02T00:23:53.286Z,15.20
2018-11-02T00:24:56.215Z,15.19
2018-11-02T00:25:58.866Z,15.19
2018-11-02T00:27:01.915Z,15.19
2018-11-02T00:28:04.938Z,15.19
2018-11-02T00:29:07.670Z,15.20
2018-11-02T00:30:10.598Z,15.20
2018-11-02T00:31:13.270Z,15.19
2018-11-02T00:32:15.915Z,15.20
2018-11-02T00:33:18.559Z,15.20
2018-11-02T00:34:21.206Z,15.19
2018-11-02T00:35:24.249Z,15.20
2018-11-02T00:36:26.906Z,15.21
2018-11-02T00:37:29.570Z,15.03
2018-11-02T00:38:32.230Z,15.21
2018-11-02T00:39:34.895Z,15.20
2018-11-02T00:40:37.547Z,15.19
2018-11-02T00:41:40.236Z,15.20
2018-11-02T00:42:42.894Z,15.21
2018-11-02T00:43:45.545Z,15.20
2018-11-02T00:44:48.214Z,15.20
2018-11-02T00:45:51.014Z,15.21
2018-11-02T00:46:53.785Z,15.20
2018-11-02T00:47:56.438Z,15.20
2018-11-02T00:48:59.079Z,15.21
2018-11-02T00:50:01.722Z,15.21
2018-11-02T00:51:04.906Z,15.20
2018-11-02T00:52:07.554Z,15.20
2018-11-02T00:53:10.199Z,15.20
2018-11-02T00:54:12.861Z,15.21
2018-11-02T00:55:15.595Z,15.21
2018-11-02T00:56:18.554Z,15.21
2018-11-02T00:57:21.198Z,15.19
2018-11-02T00:58:23.846Z,15.21
2018-11-02T00:59:26.564Z,15.20
2018-11-02T01:00:29.183Z,15.21
2018-11-02T01:01:31.954Z,15.20
2018-11-02T01:02:34.610Z,15.21
2018-11-02T01:03:37.265Z,15.21
2018-11-02T01:04:39.919Z,15.20
2018-11-02T01:05:42.567Z,15.20
2018-11-02T01:06:45.494Z,15.21
2018-11-02T01:07:48.138Z,15.21
2018-11-02T01:08:50.786Z,15.20
2018-11-02T01:09:53.426Z,15.20
2018-11-02T01:10:56.079Z,15.21
2018-11-02T01:11:59.094Z,15.20
2018-11-02T01:13:01.770Z,15.20
2018-11-02T01:14:04.563Z,15.20
2018-11-02T01:15:08.774Z,15.20
2018-11-02T01:16:11.506Z,15.20
2018-11-02T01:17:14.440Z,15.20
2018-11-02T01:18:17.087Z,15.22
2018-11-02T01:19:24.366Z,15.20
2018-11-02T01:20:26.994Z,15.21
2018-11-02T01:21:29.651Z,15.21
2018-11-02T01:22:32.645Z,15.17
2018-11-02T01:23:35.394Z,15.21
2018-11-02T01:24:38.047Z,15.21
2018-11-02T01:25:40.687Z,15.20
2018-11-02T01:26:43.348Z,15.21
2018-11-02T01:27:46.269Z,15.20
2018-11-02T01:28:48.914Z,15.21
2018-11-02T01:29:51.558Z,15.21
2018-11-02T01:30:54.222Z,15.21
2018-11-02T01:31:57.039Z,15.20
2018-11-02T01:33:00.018Z,15.21
2018-11-02T01:34:02.726Z,15.21
2018-11-02T01:35:06.591Z,15.21
2018-11-02T01:36:10.087Z,15.21
2018-11-02T01:37:12.728Z,15.22
2018-11-02T01:38:15.678Z,15.18
2018-11-02T01:39:18.326Z,15.18
2018-11-02T01:40:20.966Z,15.22
2018-11-02T01:41:23.622Z,15.21
2018-11-02T01:42:26.266Z,15.23
2018-11-02T01:43:28.935Z,15.23
2018-11-02T01:44:31.587Z,15.22
2018-11-02T01:45:34.234Z,15.22
2018-11-02T01:46:36.892Z,15.21
2018-11-02T01:47:39.550Z,15.22
2018-11-02T01:48:43.186Z,15.22
2018-11-02T01:49:45.858Z,15.23
2018-11-02T01:50:48.538Z,15.22
2018-11-02T01:51:51.198Z,15.23
2018-11-02T01:52:53.875Z,15.22
2018-11-02T01:53:56.821Z,15.22
2018-11-02T01:54:59.462Z,15.22
2018-11-02T01:56:02.145Z,15.22
2018-11-02T01:57:05.046Z,15.21
2018-11-02T01:58:07.762Z,15.22
2018-11-02T01:59:10.694Z,15.23
2018-11-02T02:00:13.343Z,15.22
2018-11-02T02:01:16.031Z,15.21
2018-11-02T02:02:18.680Z,15.22
2018-11-02T02:03:21.340Z,15.22
2018-11-02T02:04:24.272Z,15.22
2018-11-02T02:05:26.914Z,15.22
2018-11-02T02:06:29.568Z,15.22
2018-11-02T02:07:32.214Z,15.23
2018-11-02T02:08:34.919Z,15.21
2018-11-02T02:09:37.574Z,15.21
2018-11-02T02:10:40.226Z,15.22
2018-11-02T02:11:42.943Z,15.21
2018-11-02T02:12:45.626Z,15.05
2018-11-02T02:13:48.277Z,15.22
2018-11-02T02:14:50.938Z,15.23
2018-11-02T02:15:53.587Z,15.24
2018-11-02T02:16:56.230Z,15.24
2018-11-02T02:17:58.885Z,15.27
2018-11-02T02:19:01.542Z,15.25
2018-11-02T02:20:07.658Z,15.27
2018-11-02T02:21:10.322Z,15.27
2018-11-02T02:22:12.986Z,15.28
2018-11-02T02:23:15.634Z,15.28
2018-11-02T02:24:18.312Z,15.28
2018-11-02T02:25:21.262Z,15.30
2018-11-02T02:26:23.902Z,15.29
2018-11-02T02:27:26.581Z,15.30
2018-11-02T02:28:29.231Z,15.30
2018-11-02T02:29:31.878Z,15.29
2018-11-02T02:30:34.855Z,15.30
2018-11-02T02:31:37.531Z,15.30
2018-11-02T02:32:40.202Z,15.31
2018-11-02T02:33:43.062Z,15.31
2018-11-02T02:34:45.698Z,15.30
2018-11-02T02:35:48.662Z,15.31
2018-11-02T02:36:51.312Z,15.31
2018-11-02T02:37:53.968Z,15.30
2018-11-02T02:38:56.615Z,15.32
2018-11-02T02:39:59.274Z,15.31
2018-11-02T02:41:02.210Z,15.32
2018-11-02T02:42:04.986Z,15.31
2018-11-02T02:43:07.635Z,15.31
2018-11-02T02:44:10.417Z,15.32
2018-11-02T02:45:13.052Z,15.31
2018-11-02T02:46:16.007Z,15.31
2018-11-02T02:47:18.661Z,15.30
2018-11-02T02:48:21.323Z,15.31
2018-11-02T02:49:24.014Z,15.31
2018-11-02T02:50:26.659Z,15.30
2018-11-02T02:51:29.343Z,15.30
2018-11-02T02:52:31.986Z,15.29
2018-11-02T02:53:34.649Z,15.30
2018-11-02T02:54:37.308Z,15.29
2018-11-02T02:55:39.965Z,15.29
2018-11-02T02:56:42.606Z,15.30
2018-11-02T02:57:45.250Z,15.28
2018-11-02T02:58:47.943Z,15.29
2018-11-02T02:59:50.579Z,15.29
2018-11-02T03:00:53.226Z,15.29
2018-11-02T03:01:56.202Z,15.29
2018-11-02T03:02:58.863Z,15.28
2018-11-02T03:04:01.518Z,15.28
2018-11-02T03:05:04.213Z,15.28
2018-11-02T03:06:07.039Z,15.29
2018-11-02T03:07:10.014Z,15.29
2018-11-02T03:08:12.721Z,15.29
2018-11-02T03:09:15.377Z,15.29
2018-11-02T03:10:18.094Z,15.28
2018-11-02T03:11:20.730Z,15.29
2018-11-02T03:12:23.710Z,15.29
2018-11-02T03:13:26.350Z,15.29
2018-11-02T03:14:28.990Z,15.30
2018-11-02T03:15:31.682Z,15.30
2018-11-02T03:16:34.327Z,15.30
2018-11-02T03:17:37.747Z,15.30
2018-11-02T03:18:40.486Z,15.30
2018-11-02T03:19:43.050Z,15.31
2018-11-02T03:20:45.830Z,15.31
2018-11-02T03:21:48.572Z,15.31
2018-11-02T03:22:51.522Z,15.31
2018-11-02T03:23:54.170Z,15.30
2018-11-02T03:24:56.841Z,15.30
2018-11-02T03:25:59.516Z,15.31
2018-11-02T03:27:02.232Z,15.32
2018-11-02T03:28:05.378Z,15.32
2018-11-02T03:29:08.142Z,15.31
2018-11-02T03:30:11.520Z,15.31
2018-11-02T03:31:14.169Z,15.31
2018-11-02T03:32:16.867Z,15.32
2018-11-02T03:33:19.510Z,15.31
2018-11-02T03:34:22.158Z,15.32
2018-11-02T03:35:24.814Z,15.32
2018-11-02T03:36:27.483Z,15.33
2018-11-02T03:37:30.146Z,15.33
2018-11-02T03:38:32.799Z,15.36
2018-11-02T03:39:35.446Z,15.34
2018-11-02T03:40:38.094Z,15.37
2018-11-02T03:41:41.301Z,15.38
2018-11-02T03:42:49.866Z,15.39
2018-11-02T03:43:52.802Z,15.40
2018-11-02T03:44:55.479Z,15.42
2018-11-02T03:45:58.142Z,15.41
2018-11-02T03:47:00.806Z,15.41
2018-11-02T03:48:03.503Z,15.43
2018-11-02T03:49:06.398Z,15.45
2018-11-02T03:50:10.486Z,15.44
2018-11-02T03:51:13.137Z,15.45
2018-11-02T03:52:15.778Z,15.45
2018-11-02T03:53:18.664Z,15.45
2018-11-02T03:54:21.663Z,15.46
2018-11-02T03:55:24.314Z,15.47
2018-11-02T03:56:26.995Z,15.46
2018-11-02T03:57:29.638Z,15.46
2018-11-02T03:58:32.285Z,15.47
2018-11-02T03:59:35.337Z,15.47
2018-11-02T04:00:38.693Z,15.47
2018-11-02T04:01:41.822Z,15.48
2018-11-02T04:02:44.460Z,15.47
2018-11-02T04:03:47.131Z,15.48
2018-11-02T04:04:50.115Z,15.48
2018-11-02T04:05:52.758Z,15.49
2018-11-02T04:06:55.451Z,15.49
2018-11-02T04:07:58.118Z,15.49
2018-11-02T04:09:00.798Z,15.48
2018-11-02T04:10:03.836Z,15.49
2018-11-02T04:11:06.486Z,15.49
2018-11-02T04:12:09.155Z,15.49
2018-11-02T04:13:11.801Z,15.49
2018-11-02T04:14:14.431Z,15.48
2018-11-02T04:15:17.118Z,15.49
2018-11-02T04:16:19.773Z,15.48
2018-11-02T04:17:22.422Z,15.49
2018-11-02T04:18:25.062Z,15.48
2018-11-02T04:19:27.722Z,15.48
2018-11-02T04:20:30.378Z,15.48
2018-11-02T04:21:36.989Z,15.48
2018-11-02T04:22:39.666Z,15.49
2018-11-02T04:23:42.338Z,15.49
2018-11-02T04:24:44.993Z,15.49
2018-11-02T04:25:47.950Z,15.48
2018-11-02T04:26:50.657Z,15.48
2018-11-02T04:27:53.310Z,15.48
2018-11-02T04:28:55.949Z,15.48
2018-11-02T04:29:58.622Z,15.48
2018-11-02T04:31:01.617Z,15.48
2018-11-02T04:32:04.515Z,15.47
2018-11-02T04:33:07.186Z,15.48
2018-11-02T04:34:09.920Z,15.49
2018-11-02T04:35:12.595Z,15.48
2018-11-02T04:36:15.566Z,15.48
2018-11-02T04:37:18.206Z,15.49
2018-11-02T04:38:20.839Z,15.48
2018-11-02T04:39:23.565Z,15.48
2018-11-02T04:40:26.157Z,15.48
2018-11-02T04:41:29.120Z,15.48
2018-11-02T04:42:31.798Z,15.48
2018-11-02T04:43:34.442Z,15.48
2018-11-02T04:44:37.094Z,15.47
2018-11-02T04:45:40.662Z,15.47
2018-11-02T04:46:43.602Z,15.47
2018-11-02T04:47:46.246Z,15.47
2018-11-02T04:48:48.896Z,15.47
2018-11-02T04:49:51.542Z,15.48
2018-11-02T04:50:54.266Z,15.48
2018-11-02T04:51:57.230Z,15.48
2018-11-02T04:52:59.879Z,15.48
2018-11-02T04:54:02.547Z,15.48
2018-11-02T04:55:06.650Z,15.48
2018-11-02T04:56:09.298Z,15.48
2018-11-02T04:57:12.318Z,15.48
2018-11-02T04:58:14.967Z,15.47
2018-11-02T04:59:17.629Z,15.47
2018-11-02T05:00:20.326Z,15.48
2018-11-02T05:01:23.094Z,15.48
2018-11-02T05:02:25.778Z,15.49
2018-11-02T05:03:28.455Z,15.48
2018-11-02T05:04:31.104Z,15.48
2018-11-02T05:05:33.739Z,15.48
2018-11-02T05:06:36.380Z,15.48
2018-11-02T05:07:39.028Z,15.48
2018-11-02T05:08:42.158Z,15.48
2018-11-02T05:09:45.205Z,15.47
2018-11-02T05:10:47.878Z,15.48
2018-11-02T05:11:50.563Z,15.48
2018-11-02T05:12:53.559Z,15.48
2018-11-02T05:13:56.214Z,15.49
2018-11-02T05:14:58.887Z,15.48
2018-11-02T05:16:01.538Z,15.49
2018-11-02T05:17:04.246Z,15.49
2018-11-02T05:18:07.174Z,15.51
2018-11-02T05:19:09.851Z,15.51
2018-11-02T05:20:12.506Z,15.52
2018-11-02T05:21:15.186Z,15.52
2018-11-02T05:22:17.832Z,15.53
2018-11-02T05:23:20.774Z,15.53
2018-11-02T05:24:23.420Z,15.54
2018-11-02T05:25:26.070Z,15.53
2018-11-02T05:26:28.718Z,15.53
2018-11-02T05:27:31.430Z,15.54
2018-11-02T05:28:34.658Z,15.54
2018-11-02T05:29:37.362Z,15.55
2018-11-02T05:30:40.009Z,15.57
2018-11-02T05:31:42.699Z,15.57
2018-11-02T05:32:45.406Z,15.57
2018-11-02T05:33:48.090Z,15.57
2018-11-02T05:34:50.754Z,15.57
2018-11-02T05:35:53.446Z,15.57
2018-11-02T05:36:56.098Z,15.58
2018-11-02T05:37:58.779Z,15.59
2018-11-02T05:39:01.782Z,15.59
2018-11-02T05:40:05.711Z,15.58
2018-11-02T05:41:08.394Z,15.59
2018-11-02T05:42:11.070Z,15.59
2018-11-02T05:43:13.734Z,15.58
2018-11-02T05:44:16.650Z,15.58
2018-11-02T05:45:19.550Z,15.58
2018-11-02T05:46:22.226Z,15.58
2018-11-02T05:47:24.948Z,15.58
2018-11-02T05:48:27.603Z,15.59
2018-11-02T05:49:30.362Z,15.57
2018-11-02T05:50:33.051Z,15.58
2018-11-02T05:51:35.734Z,15.58
2018-11-02T05:52:38.410Z,15.58
2018-11-02T05:53:41.066Z,15.57
2018-11-02T05:54:44.017Z,15.57
2018-11-02T05:55:46.682Z,15.57
2018-11-02T05:56:49.569Z,15.57
2018-11-02T05:57:52.242Z,15.57
2018-11-02T05:58:54.895Z,15.58
2018-11-02T05:59:57.870Z,15.58
2018-11-02T06:01:00.571Z,15.58
2018-11-02T06:02:03.258Z,15.58
2018-11-02T06:03:06.117Z,15.58
2018-11-02T06:04:08.782Z,15.58
2018-11-02T06:05:11.439Z,15.57
2018-11-02T06:06:14.094Z,15.58
2018-11-02T06:07:16.870Z,15.58
2018-11-02T06:08:19.530Z,15.58
2018-11-02T06:09:22.226Z,15.58
2018-11-02T06:10:25.188Z,15.58
2018-11-02T06:11:27.830Z,15.60
2018-11-02T06:12:30.486Z,15.61
2018-11-02T06:13:33.184Z,15.60
2018-11-02T06:14:35.850Z,15.61
2018-11-02T06:15:38.766Z,15.62
2018-11-02T06:16:41.491Z,15.63
2018-11-02T06:17:44.102Z,15.63
2018-11-02T06:18:46.798Z,15.63
2018-11-02T06:19:49.442Z,15.63
2018-11-02T06:20:52.474Z,15.64
2018-11-02T06:21:55.171Z,15.63
2018-11-02T06:22:57.826Z,15.63
2018-11-02T06:24:00.593Z,15.63
2018-11-02T06:25:03.331Z,15.64
2018-11-02T06:26:06.327Z,15.63
2018-11-02T06:27:09.015Z,15.63
2018-11-02T06:28:11.675Z,15.63
2018-11-02T06:29:14.327Z,15.63
2018-11-02T06:30:16.978Z,15.65
2018-11-02T06:31:19.680Z,15.64
2018-11-02T06:32:22.370Z,15.64
2018-11-02T06:33:24.992Z,15.63
2018-11-02T06:34:27.634Z,15.64
2018-11-02T06:35:30.938Z,15.64
2018-11-02T06:36:33.689Z,15.64
2018-11-02T06:37:36.322Z,15.63
2018-11-02T06:38:39.004Z,15.64
2018-11-02T06:39:41.662Z,15.64
2018-11-02T06:40:44.334Z,15.63
2018-11-02T06:41:47.278Z,15.63
2018-11-02T06:42:49.934Z,15.63
2018-11-02T06:43:52.603Z,15.63
2018-11-02T06:44:55.303Z,15.63
2018-11-02T06:45:57.949Z,15.63
2018-11-02T06:47:00.926Z,15.63
2018-11-02T06:48:03.610Z,15.64
2018-11-02T06:49:06.291Z,15.64
2018-11-02T06:50:09.030Z,15.64
2018-11-02T06:51:11.695Z,15.63
2018-11-02T06:52:14.487Z,15.64
2018-11-02T06:53:17.238Z,15.64
2018-11-02T06:54:19.913Z,15.63
2018-11-02T06:55:22.571Z,15.64
2018-11-02T06:56:25.219Z,15.63
2018-11-02T06:57:28.178Z,15.62
2018-11-02T06:58:30.941Z,15.63
2018-11-02T06:59:33.800Z,15.63
2018-11-02T07:00:36.321Z,15.63
2018-11-02T07:01:38.954Z,15.63
2018-11-02T07:02:41.959Z,15.62
2018-11-02T07:03:44.802Z,15.63
2018-11-02T07:04:47.446Z,15.62
2018-11-02T07:05:50.114Z,15.62
2018-11-02T07:06:59.392Z,15.64
2018-11-02T07:08:02.488Z,15.62
2018-11-02T07:09:07.183Z,15.63
2018-11-02T07:10:09.974Z,15.63
2018-11-02T07:11:12.639Z,15.63
2018-11-02T07:12:15.319Z,15.63
2018-11-02T07:13:18.461Z,15.62
2018-11-02T07:14:21.154Z,15.62
2018-11-02T07:15:23.794Z,15.63
2018-11-02T07:16:26.459Z,15.64
2018-11-02T07:17:29.131Z,15.62
2018-11-02T07:18:31.778Z,15.63
2018-11-02T07:19:34.526Z,15.64
2018-11-02T07:20:37.150Z,15.64
2018-11-02T07:21:39.850Z,15.63
2018-11-02T07:22:42.494Z,15.63
2018-11-02T07:23:45.417Z,15.63
2018-11-02T07:24:48.082Z,15.65
2018-11-02T07:25:50.754Z,15.65
2018-11-02T07:26:53.410Z,15.64
2018-11-02T07:27:56.080Z,15.64
2018-11-02T07:28:59.011Z,15.65
2018-11-02T07:30:01.678Z,15.64
2018-11-02T07:31:04.458Z,15.64
2018-11-02T07:32:07.106Z,15.64
2018-11-02T07:33:09.779Z,15.65
2018-11-02T07:34:12.745Z,15.64
2018-11-02T07:35:15.398Z,15.63
2018-11-02T07:36:18.119Z,15.64
2018-11-02T07:37:20.770Z,15.64
2018-11-02T07:38:23.433Z,15.63
2018-11-02T07:39:26.450Z,15.64
2018-11-02T07:40:29.099Z,15.64
2018-11-02T07:41:31.742Z,15.64
2018-11-02T07:42:34.406Z,15.64
2018-11-02T07:43:37.070Z,15.63
2018-11-02T07:44:40.094Z,15.64
2018-11-02T07:45:42.775Z,15.64
2018-11-02T07:46:45.419Z,15.64
2018-11-02T07:47:48.231Z,15.63
2018-11-02T07:48:50.754Z,15.63
2018-11-02T07:49:53.402Z,15.64
2018-11-02T07:50:56.062Z,15.64
2018-11-02T07:51:58.758Z,15.64
2018-11-02T07:53:01.442Z,15.65
2018-11-02T07:54:04.118Z,15.64
2018-11-02T07:55:08.831Z,15.66
2018-11-02T07:56:11.487Z,15.65
2018-11-02T07:57:14.151Z,15.66
2018-11-02T07:58:16.846Z,15.66
2018-11-02T07:59:19.458Z,15.65
2018-11-02T08:00:22.227Z,15.65
2018-11-02T08:01:25.158Z,15.50
2018-11-02T08:02:27.811Z,15.66
2018-11-02T08:03:30.523Z,15.66
2018-11-02T08:04:33.158Z,15.65
2018-11-02T08:05:36.139Z,15.64
2018-11-02T08:06:38.822Z,15.65
2018-11-02T08:07:41.518Z,15.65
2018-11-02T08:08:44.162Z,15.66
2018-11-02T08:09:46.805Z,15.64
2018-11-02T08:10:49.783Z,15.65
2018-11-02T08:11:52.474Z,15.66
2018-11-02T08:12:55.122Z,15.66
2018-11-02T08:13:57.827Z,15.66
2018-11-02T08:15:00.489Z,15.66
2018-11-02T08:16:03.486Z,15.68
2018-11-02T08:17:06.174Z,15.67
2018-11-02T08:18:08.839Z,15.68
2018-11-02T08:19:11.486Z,15.68
2018-11-02T08:20:14.126Z,15.68
2018-11-02T08:21:17.090Z,15.68
2018-11-02T08:22:19.730Z,15.69
2018-11-02T08:23:22.357Z,15.69
2018-11-02T08:24:25.142Z,15.68
2018-11-02T08:25:27.751Z,15.69
2018-11-02T08:26:30.745Z,15.69
2018-11-02T08:27:33.390Z,15.70
2018-11-02T08:28:36.049Z,15.70
2018-11-02T08:29:38.710Z,15.70
2018-11-02T08:30:41.366Z,15.70
2018-11-02T08:31:44.394Z,15.70
2018-11-02T08:32:47.042Z,15.69
2018-11-02T08:33:49.702Z,15.70
2018-11-02T08:34:52.330Z,15.70
2018-11-02T08:35:54.960Z,15.71
2018-11-02T08:36:57.938Z,15.71
2018-11-02T08:38:00.590Z,15.71
2018-11-02T08:39:03.718Z,15.71
2018-11-02T08:40:07.014Z,15.71
2018-11-02T08:41:09.686Z,15.72
2018-11-02T08:42:12.614Z,15.72
2018-11-02T08:43:15.246Z,15.71
2018-11-02T08:44:17.876Z,15.72
2018-11-02T08:45:20.520Z,15.73
2018-11-02T08:46:23.225Z,15.74
2018-11-02T08:47:25.850Z,15.75
2018-11-02T08:48:28.498Z,15.74
2018-11-02T08:49:31.174Z,15.75
2018-11-02T08:50:33.818Z,15.75
2018-11-02T08:51:36.460Z,15.75
2018-11-02T08:52:39.378Z,15.76
2018-11-02T08:53:42.022Z,15.77
2018-11-02T08:54:44.666Z,15.77
2018-11-02T08:55:47.374Z,15.77
2018-11-02T08:56:50.018Z,15.77
2018-11-02T08:57:53.038Z,15.63
2018-11-02T08:58:55.665Z,15.77
2018-11-02T08:59:58.318Z,15.78
2018-11-02T09:01:00.990Z,15.78
2018-11-02T09:02:03.677Z,15.78
2018-11-02T09:03:06.627Z,15.78
2018-11-02T09:04:09.268Z,15.77
2018-11-02T09:05:12.182Z,15.62
2018-11-02T09:06:14.655Z,15.78
2018-11-02T09:07:17.309Z,15.79
2018-11-02T09:08:20.242Z,15.78
2018-11-02T09:09:22.886Z,15.78
2018-11-02T09:10:25.534Z,15.78
2018-11-02T09:11:28.190Z,15.78
2018-11-02T09:12:30.894Z,15.77
2018-11-02T09:13:33.907Z,15.77
2018-11-02T09:14:36.552Z,15.77
2018-11-02T09:15:39.203Z,15.77
2018-11-02T09:16:41.951Z,15.77
2018-11-02T09:17:44.590Z,15.77
2018-11-02T09:18:47.676Z,15.77
2018-11-02T09:19:50.230Z,15.76
2018-11-02T09:20:52.878Z,15.76
2018-11-02T09:21:55.510Z,15.76
2018-11-02T09:22:58.166Z,15.76
2018-11-02T09:24:00.839Z,15.76
2018-11-02T09:25:03.570Z,15.76
2018-11-02T09:26:06.574Z,15.75
2018-11-02T09:27:09.230Z,15.75
2018-11-02T09:28:11.959Z,15.75
2018-11-02T09:29:14.860Z,15.76
2018-11-02T09:30:17.534Z,15.74
2018-11-02T09:31:20.198Z,15.75
2018-11-02T09:32:22.822Z,15.74
2018-11-02T09:33:25.464Z,15.73
2018-11-02T09:34:28.109Z,15.75
2018-11-02T09:35:30.794Z,15.74
2018-11-02T09:36:33.478Z,15.75
2018-11-02T09:37:36.162Z,15.74
2018-11-02T09:38:39.263Z,15.74
2018-11-02T09:39:42.262Z,15.74
2018-11-02T09:40:44.914Z,15.75
2018-11-02T09:41:47.579Z,15.74
2018-11-02T09:42:50.410Z,15.75
2018-11-02T09:43:52.950Z,15.74
2018-11-02T09:44:55.898Z,15.74
2018-11-02T09:45:58.550Z,15.75
2018-11-02T09:47:01.210Z,15.75
2018-11-02T09:48:04.162Z,15.76
2018-11-02T09:49:06.822Z,15.76
2018-11-02T09:50:10.586Z,15.76
2018-11-02T09:51:13.266Z,15.75
2018-11-02T09:52:15.906Z,15.75
2018-11-02T09:53:18.562Z,15.74
2018-11-02T09:54:21.208Z,15.76
2018-11-02T09:55:24.007Z,15.75
2018-11-02T09:56:26.806Z,15.74
2018-11-02T09:57:29.489Z,15.75
2018-11-02T09:58:32.169Z,15.75
2018-11-02T09:59:34.837Z,15.74
2018-11-02T10:00:37.763Z,15.73
2018-11-02T10:01:40.430Z,15.74
2018-11-02T10:02:43.086Z,15.74
2018-11-02T10:03:45.758Z,15.73
2018-11-02T10:04:48.650Z,15.74
2018-11-02T10:05:51.347Z,15.73
2018-11-02T10:06:54.035Z,15.75
2018-11-02T10:07:56.750Z,15.73
2018-11-02T10:08:59.541Z,15.73
2018-11-02T10:10:02.214Z,15.74
2018-11-02T10:11:05.289Z,15.73
2018-11-02T10:12:07.962Z,15.73
2018-11-02T10:13:10.663Z,15.73
2018-11-02T10:14:13.382Z,15.73
2018-11-02T10:15:16.329Z,15.72
2018-11-02T10:16:19.305Z,15.73
2018-11-02T10:17:22.007Z,15.73
2018-11-02T10:18:24.658Z,15.73
2018-11-02T10:19:27.363Z,15.73
2018-11-02T10:20:30.030Z,15.73
2018-11-02T10:21:33.002Z,15.73
2018-11-02T10:22:35.754Z,15.73
2018-11-02T10:23:38.429Z,15.73
2018-11-02T10:24:41.102Z,15.73
2018-11-02T10:25:43.764Z,15.73
2018-11-02T10:26:46.569Z,15.73
2018-11-02T10:27:49.370Z,15.73
2018-11-02T10:28:52.266Z,15.72
2018-11-02T10:29:55.075Z,15.73
2018-11-02T10:30:57.852Z,15.74
2018-11-02T10:32:00.918Z,15.74
2018-11-02T10:33:03.693Z,15.74
2018-11-02T10:34:06.457Z,15.74
2018-11-02T10:35:09.354Z,15.74
2018-11-02T10:36:12.085Z,15.74
2018-11-02T10:37:15.149Z,15.73
2018-11-02T10:38:17.926Z,15.73
2018-11-02T10:39:20.680Z,15.74
2018-11-02T10:40:23.339Z,15.73
2018-11-02T10:41:31.541Z,15.74
2018-11-02T10:42:34.666Z,15.74
2018-11-02T10:43:37.502Z,15.73
2018-11-02T10:44:43.473Z,15.74
2018-11-02T10:45:46.958Z,15.75
2018-11-02T10:46:49.770Z,15.75
2018-11-02T10:47:52.826Z,15.74
2018-11-02T10:48:55.496Z,15.75
2018-11-02T10:49:58.170Z,15.70
2018-11-02T10:51:00.875Z,15.74
2018-11-02T10:52:03.649Z,15.75
2018-11-02T10:53:06.682Z,15.74
2018-11-02T10:54:09.398Z,15.74
2018-11-02T10:55:12.086Z,15.75
2018-11-02T10:56:14.792Z,15.75
2018-11-02T10:57:17.467Z,15.75
2018-11-02T10:58:20.538Z,15.75
2018-11-02T10:59:23.210Z,15.75
2018-11-02T11:00:31.499Z,15.76
2018-11-02T11:01:39.627Z,15.76
2018-11-02T11:02:42.338Z,15.77
2018-11-02T11:03:45.342Z,15.76
2018-11-02T11:04:48.030Z,15.77
2018-11-02T11:05:50.706Z,15.76
2018-11-02T11:06:53.421Z,15.75
2018-11-02T11:07:56.223Z,15.75
2018-11-02T11:08:59.198Z,15.75
2018-11-02T11:10:01.864Z,15.75
2018-11-02T11:11:04.820Z,15.75
2018-11-02T11:12:07.708Z,15.75
2018-11-02T11:13:10.535Z,15.75
2018-11-02T11:14:13.006Z,15.75
2018-11-02T11:15:15.668Z,15.74
2018-11-02T11:16:18.346Z,15.75
2018-11-02T11:17:21.013Z,15.75
2018-11-02T11:18:23.740Z,15.74
2018-11-02T11:19:26.714Z,15.74
2018-11-02T11:20:29.398Z,15.76
2018-11-02T11:21:32.108Z,15.75
2018-11-02T11:22:34.778Z,15.76
2018-11-02T11:23:37.438Z,15.75
2018-11-02T11:24:40.458Z,15.76
2018-11-02T11:25:43.122Z,15.75
2018-11-02T11:26:45.798Z,15.76
2018-11-02T11:27:48.462Z,15.76
2018-11-02T11:28:51.147Z,15.76
2018-11-02T11:29:54.206Z,15.76
2018-11-02T11:30:56.895Z,15.76
2018-11-02T11:31:59.566Z,15.76
2018-11-02T11:33:02.239Z,15.75
2018-11-02T11:34:05.776Z,15.76
2018-11-02T11:35:10.342Z,15.76
2018-11-02T11:36:13.019Z,15.76
2018-11-02T11:37:15.695Z,15.77
2018-11-02T11:38:18.420Z,15.76
2018-11-02T11:39:21.264Z,15.77
2018-11-02T11:40:24.274Z,15.76
2018-11-02T11:41:26.962Z,15.73
2018-11-02T11:42:29.646Z,15.77
2018-11-02T11:43:32.361Z,15.78
2018-11-02T11:44:35.082Z,15.78
2018-11-02T11:45:38.130Z,15.77
2018-11-02T11:46:40.817Z,15.78
2018-11-02T11:47:43.526Z,15.77
2018-11-02T11:48:46.353Z,15.78
2018-11-02T11:49:48.916Z,15.77
2018-11-02T11:50:51.898Z,15.77
2018-11-02T11:51:54.589Z,15.76
2018-11-02T11:52:57.274Z,15.78
2018-11-02T11:53:59.945Z,15.77
2018-11-02T11:55:02.627Z,15.77
2018-11-02T11:56:06.454Z,15.77
2018-11-02T11:57:09.166Z,15.76
2018-11-02T11:58:11.843Z,15.78
2018-11-02T11:59:14.546Z,15.78
2018-11-02T12:00:19.654Z,15.74
2018-11-02T12:01:22.370Z,15.77
2018-11-02T12:02:25.141Z,15.78
2018-11-02T12:03:27.770Z,15.79
2018-11-02T12:04:30.585Z,15.78
2018-11-02T12:05:33.178Z,15.78
2018-11-02T12:06:36.211Z,15.78
2018-11-02T12:07:39.064Z,15.78
2018-11-02T12:08:41.711Z,15.78
2018-11-02T12:09:44.383Z,15.78
2018-11-02T12:10:47.066Z,15.77
2018-11-02T12:11:49.991Z,15.77
2018-11-02T12:12:53.018Z,15.78
2018-11-02T12:13:55.693Z,15.78
2018-11-02T12:14:58.370Z,15.78
2018-11-02T12:16:01.065Z,15.79
2018-11-02T12:17:04.050Z,15.79
2018-11-02T12:18:06.735Z,15.79
2018-11-02T12:19:09.418Z,15.80
2018-11-02T12:20:28.310Z,15.79
2018-11-02T12:21:30.993Z,15.80
2018-11-02T12:22:34.063Z,15.80
2018-11-02T12:23:36.727Z,15.81
2018-11-02T12:24:39.401Z,15.80
2018-11-02T12:25:42.138Z,15.80
2018-11-02T12:26:44.792Z,15.79
2018-11-02T12:27:47.807Z,15.81
2018-11-02T12:28:50.535Z,15.80
2018-11-02T12:29:53.160Z,15.80
2018-11-02T12:30:55.835Z,15.81
2018-11-02T12:31:58.494Z,15.81
2018-11-02T12:33:01.445Z,15.82
2018-11-02T12:34:04.118Z,15.82
2018-11-02T12:35:07.642Z,15.83
2018-11-02T12:36:10.321Z,15.84
2018-11-02T12:37:13.039Z,15.84
2018-11-02T12:38:15.718Z,15.85
2018-11-02T12:39:18.378Z,15.86
2018-11-02T12:40:22.104Z,15.85
2018-11-02T12:41:24.911Z,15.85
2018-11-02T12:42:27.578Z,15.86
2018-11-02T12:43:30.353Z,15.87
2018-11-02T12:44:32.986Z,15.87
2018-11-02T12:45:35.624Z,15.87
2018-11-02T12:46:38.290Z,15.87
2018-11-02T12:47:41.328Z,15.87
2018-11-02T12:48:44.596Z,15.87
2018-11-02T12:49:47.425Z,15.88
2018-11-02T12:50:49.711Z,15.87
2018-11-02T12:51:52.394Z,15.88
2018-11-02T12:52:56.519Z,15.87
2018-11-02T12:53:59.548Z,15.88
2018-11-02T12:55:02.206Z,15.88
2018-11-02T12:56:04.861Z,15.89
2018-11-02T12:57:07.514Z,15.88
2018-11-02T12:58:10.191Z,15.88
2018-11-02T12:59:12.978Z,15.89
2018-11-02T13:00:17.042Z,15.88
2018-11-02T13:01:19.694Z,15.88
2018-11-02T13:02:22.342Z,15.89
2018-11-02T13:03:24.985Z,15.88
2018-11-02T13:04:27.978Z,15.88
2018-11-02T13:05:30.638Z,15.88
2018-11-02T13:06:33.288Z,15.89
2018-11-02T13:07:36.009Z,15.88
2018-11-02T13:08:38.792Z,15.89
2018-11-02T13:09:41.896Z,15.89
2018-11-02T13:10:44.494Z,15.89
2018-11-02T13:11:47.151Z,15.89
2018-11-02T13:12:50.069Z,15.89
2018-11-02T13:13:53.158Z,15.88
2018-11-02T13:14:56.087Z,15.89
2018-11-02T13:15:58.760Z,15.89
2018-11-02T13:17:01.731Z,15.89
2018-11-02T13:18:04.600Z,15.89
2018-11-02T13:19:07.336Z,15.90
2018-11-02T13:20:10.912Z,15.91
2018-11-02T13:21:13.518Z,15.93
2018-11-02T13:22:16.181Z,15.93
2018-11-02T13:23:18.842Z,15.93
2018-11-02T13:24:21.490Z,15.94
2018-11-02T13:25:24.174Z,15.96
2018-11-02T13:26:26.975Z,15.96
2018-11-02T13:27:29.498Z,15.96
2018-11-02T13:28:32.199Z,15.96
2018-11-02T13:29:34.870Z,15.97